Time;durP1;ratioP1;P1;durP2;ratioP2;P2;SDS_P1;SDS_P2;PMS_P1;PMS_P2;Temp;Humidity;BMP_temperature;BMP_pressure;BME280_temperature;BME280_humidity;BME280_pressure;Samples;Min_cycle;Max_cycle;Signal;HPM_P1;HPM_P2
2022/09/21 00:02:07;;;;;;;1.37;1.33;;;;;7.00;96722.00;;;;5116585;28;20198;-64
2022/09/21 00:04:34;;;;;;;0.90;0.90;;;;;6.90;96721.00;;;;5116379;28;20212;-65
2022/09/21 00:07:01;;;;;;;2.20;1.30;;;;;7.00;96718.00;;;;5116253;28;20222;-64
2022/09/21 00:09:31;;;;;;;0.90;0.90;;;;;7.00;96719.00;;;;5116105;28;20374;-63
2022/09/21 00:11:58;;;;;;;1.57;1.47;;;;;6.90;96727.00;;;;5116054;28;20226;-65
2022/09/21 00:14:24;;;;;;;1.03;1.03;;;;;6.90;96718.00;;;;5116060;28;20266;-65
2022/09/21 00:16:51;;;;;;;1.07;1.07;;;;;6.90;96717.00;;;;5115986;28;20319;-65
2022/09/21 00:19:18;;;;;;;1.33;1.23;;;;;6.80;96722.00;;;;5116017;28;20198;-65
2022/09/21 00:21:45;;;;;;;0.80;0.80;;;;;6.50;96719.00;;;;5116182;28;20205;-65
2022/09/21 00:24:12;;;;;;;1.13;1.03;;;;;6.60;96724.00;;;;5115992;28;20210;-63
2022/09/21 00:26:39;;;;;;;0.90;0.90;;;;;6.60;96722.00;;;;5115793;28;20250;-63
2022/09/21 00:29:06;;;;;;;0.77;0.77;;;;;6.70;96723.00;;;;5115132;28;20228;-64
2022/09/21 00:31:34;;;;;;;0.77;0.77;;;;;6.60;96716.00;;;;5116443;28;20645;-64
2022/09/21 00:34:02;;;;;;;1.40;1.30;;;;;6.70;96722.00;;;;5116137;28;20660;-65
2022/09/21 00:36:32;;;;;;;0.80;0.80;;;;;6.60;96724.00;;;;5116050;28;20312;-65
2022/09/21 00:39:01;;;;;;;1.70;1.60;;;;;6.60;96726.00;;;;5115697;28;20679;-65
2022/09/21 00:41:30;;;;;;;1.30;1.20;;;;;6.60;96719.00;;;;5115754;28;20336;-64
2022/09/21 00:44:30;;;;;;;0.80;0.80;;;;;6.50;96714.00;;;;5115783;28;20227;-65
2022/09/21 00:47:06;;;;;;;3.23;1.83;;;;;6.30;96725.00;;;;5115676;28;20205;-64
2022/09/21 00:49:34;;;;;;;1.40;1.00;;;;;6.40;96717.00;;;;5115606;28;20258;-66
2022/09/21 00:52:04;;;;;;;2.97;2.17;;;;;6.40;96725.00;;;;5115624;28;20212;-65
2022/09/21 00:54:36;;;;;;;0.70;0.70;;;;;6.40;96717.00;;;;5115707;28;20187;-65
2022/09/21 00:57:04;;;;;;;0.73;0.73;;;;;6.40;96713.00;;;;5115468;28;20271;-65
2022/09/21 00:59:34;;;;;;;2.10;1.47;;;;;6.40;96715.00;;;;5115471;28;20190;-64
2022/09/21 01:02:01;;;;;;;0.83;0.83;;;;;6.30;96705.00;;;;5115360;28;20286;-65
2022/09/21 01:04:28;;;;;;;1.37;1.37;;;;;6.30;96716.00;;;;5115506;28;20695;-64
2022/09/21 01:06:56;;;;;;;1.23;1.13;;;;;6.30;96719.00;;;;5115325;28;20194;-64
2022/09/21 01:09:27;;;;;;;1.27;1.27;;;;;6.10;96718.00;;;;5115287;28;20358;-65
2022/09/21 01:12:04;;;;;;;0.77;0.77;;;;;6.20;96702.00;;;;5115189;28;20559;-65
2022/09/21 01:14:56;;;;;;;0.80;0.80;;;;;6.20;96716.00;;;;5115047;28;20195;-65
2022/09/21 01:17:32;;;;;;;0.80;0.80;;;;;6.20;96718.00;;;;5115098;28;20178;-62
2022/09/21 01:20:39;;;;;;;0.93;0.93;;;;;6.00;96708.00;;;;5115087;28;20292;-65
2022/09/21 01:23:32;;;;;;;0.63;0.63;;;;;6.00;96720.00;;;;5106593;28;20288;-64
2022/09/21 01:26:11;;;;;;;1.10;1.10;;;;;5.90;96719.00;;;;5115071;28;20220;-65
2022/09/21 01:29:11;;;;;;;1.20;1.10;;;;;5.90;96710.00;;;;5114867;28;20217;-65
2022/09/21 01:31:42;;;;;;;0.80;0.80;;;;;5.80;96712.00;;;;5114963;28;20204;-65
2022/09/21 01:34:15;;;;;;;1.33;1.33;;;;;5.80;96718.00;;;;5096978;28;20196;-65
2022/09/21 01:36:47;;;;;;;0.80;0.80;;;;;5.80;96713.00;;;;5097103;28;20216;-65
2022/09/21 01:39:16;;;;;;;0.80;0.80;;;;;5.70;96717.00;;;;5097073;28;20212;-66
2022/09/21 01:41:45;;;;;;;0.80;0.80;;;;;5.70;96718.00;;;;5113932;28;20218;-64
2022/09/21 01:44:18;;;;;;;0.80;0.80;;;;;5.60;96720.00;;;;5114663;28;20198;-66
2022/09/21 01:46:48;;;;;;;0.70;0.70;;;;;5.70;96718.00;;;;5114551;28;20664;-65
2022/09/21 01:49:22;;;;;;;0.87;0.87;;;;;5.60;96713.00;;;;5114492;28;20281;-65
2022/09/21 01:51:54;;;;;;;0.83;0.83;;;;;5.60;96712.00;;;;5096612;28;20254;-65
2022/09/21 01:54:24;;;;;;;0.90;0.90;;;;;5.70;96721.00;;;;5114465;28;20254;-65
2022/09/21 01:56:55;;;;;;;0.97;0.97;;;;;5.70;96721.00;;;;5096847;28;20208;-65
2022/09/21 01:59:31;;;;;;;0.80;0.80;;;;;5.70;96720.00;;;;5114457;28;20212;-65
2022/09/21 02:02:04;;;;;;;0.70;0.70;;;;;5.50;96717.00;;;;5114404;28;20280;-65
2022/09/21 02:04:33;;;;;;;1.20;1.20;;;;;5.40;96727.00;;;;5114241;28;20694;-65
2022/09/21 02:07:01;;;;;;;2.53;2.00;;;;;5.40;96723.00;;;;5114270;28;20239;-65
2022/09/21 02:09:28;;;;;;;0.83;0.83;;;;;5.40;96731.00;;;;5114047;28;20224;-65
2022/09/21 02:11:57;;;;;;;1.23;1.10;;;;;5.40;96719.00;;;;5114271;28;20192;-65
2022/09/21 02:14:26;;;;;;;1.77;1.67;;;;;5.40;96720.00;;;;5114144;28;20234;-65
2022/09/21 02:17:04;;;;;;;1.10;1.10;;;;;5.40;96715.00;;;;5114216;28;20188;-64
2022/09/21 02:19:37;;;;;;;0.90;0.90;;;;;5.60;96723.00;;;;5114062;28;20193;-65
2022/09/21 02:22:11;;;;;;;0.73;0.73;;;;;5.50;96714.00;;;;5114066;28;20579;-65
2022/09/21 02:24:42;;;;;;;0.60;0.60;;;;;5.50;96716.00;;;;5114032;28;20213;-64
2022/09/21 02:27:20;;;;;;;0.87;0.87;;;;;5.40;96711.00;;;;5113929;28;20225;-62
2022/09/21 02:29:52;;;;;;;0.60;0.60;;;;;5.30;96706.00;;;;5095882;28;20232;-65
2022/09/21 02:32:34;;;;;;;0.73;0.73;;;;;5.30;96710.00;;;;5113889;28;20641;-64
2022/09/21 02:35:07;;;;;;;0.73;0.73;;;;;5.30;96714.00;;;;5113841;28;20231;-64
2022/09/21 02:37:43;;;;;;;1.60;1.33;;;;;5.30;96711.00;;;;5113773;28;20219;-63
2022/09/21 02:40:21;;;;;;;0.90;0.90;;;;;5.30;96701.00;;;;5113718;28;20199;-64
2022/09/21 02:42:54;;;;;;;0.73;0.73;;;;;5.10;96696.00;;;;5113592;28;20222;-64
2022/09/21 02:45:27;;;;;;;0.60;0.60;;;;;5.20;96713.00;;;;5113714;28;20212;-62
2022/09/21 02:47:59;;;;;;;0.80;0.80;;;;;5.20;96696.00;;;;5113829;28;20233;-64
2022/09/21 02:50:32;;;;;;;0.73;0.73;;;;;5.20;96713.00;;;;5113605;28;20222;-65
2022/09/21 02:53:03;;;;;;;0.70;0.70;;;;;5.20;96709.00;;;;5113353;28;20641;-65
2022/09/21 02:55:31;;;;;;;0.80;0.80;;;;;5.10;96713.00;;;;5113694;28;20202;-65
2022/09/21 02:58:00;;;;;;;0.77;0.77;;;;;5.10;96701.00;;;;5113625;28;20201;-64
2022/09/21 03:00:28;;;;;;;0.90;0.90;;;;;5.10;96698.00;;;;5113627;28;20242;-65
2022/09/21 03:02:55;;;;;;;0.60;0.60;;;;;5.20;96703.00;;;;5113563;28;20281;-64
2022/09/21 03:05:22;;;;;;;1.50;1.17;;;;;5.10;96701.00;;;;5113428;28;20220;-65
2022/09/21 03:07:49;;;;;;;0.70;0.70;;;;;5.10;96700.00;;;;5113555;28;20285;-64
2022/09/21 03:10:16;;;;;;;0.93;0.93;;;;;5.00;96691.00;;;;5113460;28;20305;-65
2022/09/21 03:12:43;;;;;;;0.80;0.80;;;;;5.10;96701.00;;;;5113413;28;20548;-65
2022/09/21 03:15:10;;;;;;;1.37;1.27;;;;;5.10;96700.00;;;;5113390;28;20203;-65
2022/09/21 03:17:37;;;;;;;0.70;0.70;;;;;5.20;96696.00;;;;5113443;28;20202;-65
2022/09/21 03:20:05;;;;;;;0.70;0.70;;;;;5.10;96691.00;;;;5113214;28;20199;-65
2022/09/21 03:22:32;;;;;;;1.10;1.10;;;;;5.00;96692.00;;;;5113147;28;20210;-62
2022/09/21 03:24:59;;;;;;;1.00;1.00;;;;;4.90;96689.00;;;;5095296;28;20214;-65
2022/09/21 03:27:26;;;;;;;1.43;1.43;;;;;5.00;96702.00;;;;5113102;28;20222;-65
2022/09/21 03:29:53;;;;;;;0.70;0.70;;;;;5.10;96698.00;;;;5095062;28;20300;-64
2022/09/21 03:32:20;;;;;;;0.80;0.80;;;;;5.10;96700.00;;;;5112821;28;20230;-65
2022/09/21 03:34:47;;;;;;;1.00;0.97;;;;;5.00;96713.00;;;;5113056;28;20747;-65
2022/09/21 03:37:14;;;;;;;0.77;0.77;;;;;4.90;96709.00;;;;5113109;28;20208;-64
2022/09/21 03:39:40;;;;;;;0.80;0.80;;;;;4.90;96701.00;;;;5112851;28;20273;-64
2022/09/21 03:42:09;;;;;;;0.73;0.73;;;;;4.80;96716.00;;;;5112878;28;20641;-65
2022/09/21 03:44:36;;;;;;;0.80;0.80;;;;;4.70;96710.00;;;;5112864;28;20687;-68
2022/09/21 03:47:05;;;;;;;1.00;1.00;;;;;4.70;96708.00;;;;5113043;28;20205;-67
2022/09/21 03:49:34;;;;;;;1.53;1.43;;;;;4.60;96722.00;;;;5112911;28;20261;-65
2022/09/21 03:52:04;;;;;;;0.70;0.70;;;;;4.50;96715.00;;;;5113022;28;20211;-65
2022/09/21 03:54:31;;;;;;;0.60;0.60;;;;;4.40;96716.00;;;;5112931;28;20273;-65
2022/09/21 03:57:00;;;;;;;0.60;0.60;;;;;4.50;96715.00;;;;5112859;28;20190;-67
2022/09/21 03:59:27;;;;;;;0.60;0.60;;;;;4.50;96714.00;;;;5112883;28;20223;-65
2022/09/21 04:01:54;;;;;;;0.80;0.80;;;;;4.50;96712.00;;;;5112761;28;20236;-67
2022/09/21 04:04:23;;;;;;;0.60;0.60;;;;;4.50;96718.00;;;;5113927;28;20252;-65
2022/09/21 04:06:50;;;;;;;0.80;0.80;;;;;4.50;96717.00;;;;5116197;28;20276;-65
2022/09/21 04:09:17;;;;;;;0.70;0.70;;;;;4.60;96721.00;;;;5116155;28;20232;-65
2022/09/21 04:11:45;;;;;;;1.27;1.27;;;;;4.60;96723.00;;;;5116093;28;20217;-64
2022/09/21 04:14:12;;;;;;;1.33;1.23;;;;;4.60;96718.00;;;;5116089;28;20629;-65
2022/09/21 04:16:38;;;;;;;0.60;0.60;;;;;4.50;96721.00;;;;5116036;28;20255;-65
2022/09/21 04:19:05;;;;;;;0.57;0.57;;;;;4.40;96717.00;;;;5116085;28;20202;-64
2022/09/21 04:21:32;;;;;;;0.83;0.83;;;;;4.50;96718.00;;;;5115954;28;20297;-64
2022/09/21 04:24:00;;;;;;;1.83;1.73;;;;;4.50;96727.00;;;;5115951;28;20198;-65
2022/09/21 04:26:30;;;;;;;1.57;1.47;;;;;4.40;96723.00;;;;5115991;28;20597;-65
2022/09/21 04:28:57;;;;;;;0.97;0.93;;;;;4.30;96723.00;;;;5115963;28;20221;-64
2022/09/21 04:31:24;;;;;;;1.87;1.77;;;;;4.40;96720.00;;;;5116027;28;20228;-64
2022/09/21 04:33:53;;;;;;;1.10;1.10;;;;;4.40;96728.00;;;;5098062;28;20229;-65
2022/09/21 04:36:21;;;;;;;1.17;1.07;;;;;4.30;96742.00;;;;5115585;28;20225;-66
2022/09/21 04:38:49;;;;;;;0.97;0.97;;;;;4.10;96726.00;;;;5115733;28;20203;-64
2022/09/21 04:41:17;;;;;;;1.47;1.47;;;;;4.10;96725.00;;;;5115666;28;20197;-64
2022/09/21 04:43:45;;;;;;;1.80;1.27;;;;;4.20;96726.00;;;;5115663;28;20206;-64
2022/09/21 04:46:17;;;;;;;1.83;1.57;;;;;4.10;96733.00;;;;5115504;28;20285;-66
2022/09/21 04:48:47;;;;;;;0.97;0.97;;;;;4.10;96731.00;;;;5115522;28;20723;-64
2022/09/21 04:51:15;;;;;;;0.93;0.93;;;;;4.00;96739.00;;;;5115438;28;20618;-65
2022/09/21 04:53:43;;;;;;;0.80;0.80;;;;;4.00;96730.00;;;;5115446;28;20653;-64
2022/09/21 04:56:13;;;;;;;1.10;1.10;;;;;4.10;96732.00;;;;5115304;28;20187;-64
2022/09/21 04:58:40;;;;;;;0.90;0.90;;;;;3.90;96729.00;;;;5115515;28;20204;-62
2022/09/21 05:01:07;;;;;;;0.80;0.80;;;;;3.80;96746.00;;;;5115475;28;20202;-66
2022/09/21 05:03:34;;;;;;;0.80;0.80;;;;;3.80;96741.00;;;;5115464;28;20194;-64
2022/09/21 05:06:01;;;;;;;0.80;0.80;;;;;3.80;96748.00;;;;5115465;28;20267;-64
2022/09/21 05:11:14;;;;;;;0.93;0.93;;;;;3.80;96752.00;;;;5115473;28;20217;-65
2022/09/21 05:13:42;;;;;;;2.00;1.10;;;;;4.10;96748.00;;;;5115147;28;20190;-64
2022/09/21 05:16:09;;;;;;;0.97;0.97;;;;;4.30;96741.00;;;;5114982;28;20190;-64
2022/09/21 05:18:36;;;;;;;0.90;0.90;;;;;4.50;96747.00;;;;5115110;28;20643;-66
2022/09/21 05:21:05;;;;;;;0.87;0.87;;;;;4.60;96744.00;;;;5115136;28;20209;-65
2022/09/21 05:23:32;;;;;;;0.60;0.60;;;;;4.50;96747.00;;;;5115026;28;20214;-66
2022/09/21 05:25:59;;;;;;;0.97;0.97;;;;;4.60;96746.00;;;;5115389;28;20203;-64
2022/09/21 05:28:27;;;;;;;0.60;0.60;;;;;4.60;96757.00;;;;5114920;28;20686;-64
2022/09/21 05:30:59;;;;;;;0.70;0.70;;;;;4.30;96752.00;;;;5115047;28;20233;-66
2022/09/21 05:33:29;;;;;;;0.63;0.63;;;;;4.20;96749.00;;;;5114977;28;20214;-66
2022/09/21 05:36:04;;;;;;;0.80;0.80;;;;;4.10;96750.00;;;;5115135;28;20537;-66
2022/09/21 05:38:32;;;;;;;0.93;0.93;;;;;4.10;96756.00;;;;5114956;28;20209;-65
2022/09/21 05:40:59;;;;;;;0.67;0.67;;;;;4.00;96754.00;;;;5114990;28;20198;-65
2022/09/21 05:43:26;;;;;;;0.60;0.60;;;;;4.10;96757.00;;;;5114969;28;20223;-65
2022/09/21 05:46:01;;;;;;;0.73;0.73;;;;;4.10;96756.00;;;;5114692;28;20198;-65
2022/09/21 05:48:31;;;;;;;0.60;0.60;;;;;4.10;96771.00;;;;5096506;28;20618;-65
2022/09/21 05:51:06;;;;;;;0.87;0.87;;;;;4.10;96758.00;;;;5114497;28;20317;-64
2022/09/21 05:53:57;;;;;;;0.60;0.60;;;;;4.00;96761.00;;;;5114472;28;20544;-65
2022/09/21 05:56:39;;;;;;;0.70;0.70;;;;;3.90;96775.00;;;;5114423;28;20234;-64
2022/09/21 05:59:24;;;;;;;0.70;0.70;;;;;3.90;96771.00;;;;5114241;28;20670;-65
2022/09/21 06:02:02;;;;;;;0.70;0.70;;;;;3.90;96768.00;;;;5114381;28;20190;-65
2022/09/21 06:04:31;;;;;;;0.97;0.97;;;;;4.10;96767.00;;;;5114398;28;20206;-65
2022/09/21 06:06:57;;;;;;;0.60;0.60;;;;;4.20;96765.00;;;;5114419;28;20192;-62
2022/09/21 06:09:25;;;;;;;0.70;0.70;;;;;4.30;96773.00;;;;5114385;28;20213;-59
2022/09/21 06:11:54;;;;;;;0.70;0.70;;;;;4.10;96776.00;;;;5114650;28;20213;-59
2022/09/21 06:14:24;;;;;;;1.23;1.23;;;;;4.20;96775.00;;;;5096115;28;20232;-59
2022/09/21 06:16:51;;;;;;;0.70;0.70;;;;;4.30;96770.00;;;;5114256;28;20226;-59
2022/09/21 06:19:18;;;;;;;0.80;0.80;;;;;4.40;96773.00;;;;5114145;28;20198;-59
2022/09/21 06:21:45;;;;;;;0.90;0.90;;;;;4.50;96774.00;;;;5114307;28;20214;-59
2022/09/21 06:24:12;;;;;;;0.60;0.60;;;;;4.60;96777.00;;;;5114158;28;20276;-60
2022/09/21 06:26:39;;;;;;;0.50;0.50;;;;;4.60;96770.00;;;;5113647;28;20194;-62
2022/09/21 06:29:06;;;;;;;0.67;0.67;;;;;4.70;96778.00;;;;5114107;28;20271;-61
2022/09/21 06:31:35;;;;;;;0.83;0.83;;;;;4.70;96778.00;;;;5113884;28;20226;-62
2022/09/21 06:34:05;;;;;;;0.60;0.60;;;;;4.60;96781.00;;;;5099095;28;20198;-63
2022/09/21 06:36:32;;;;;;;0.63;0.63;;;;;4.70;96777.00;;;;5116370;28;20639;-62
2022/09/21 06:38:59;;;;;;;0.60;0.60;;;;;4.90;96770.00;;;;5113750;28;20216;-62
2022/09/21 06:41:26;;;;;;;0.60;0.60;;;;;5.00;96771.00;;;;5113800;28;20246;-63
2022/09/21 06:43:55;;;;;;;0.87;0.87;;;;;5.00;96775.00;;;;5113580;28;20193;-62
2022/09/21 06:46:22;;;;;;;0.60;0.60;;;;;5.10;96766.00;;;;5113614;28;20190;-62
2022/09/21 06:48:51;;;;;;;0.70;0.70;;;;;5.30;96782.00;;;;5113399;28;20228;-62
2022/09/21 06:51:20;;;;;;;1.00;0.70;;;;;5.40;96776.00;;;;5113572;28;20299;-62
2022/09/21 06:53:47;;;;;;;0.90;0.90;;;;;5.50;96774.00;;;;5113752;28;20217;-63
2022/09/21 06:56:17;;;;;;;1.57;1.53;;;;;5.30;96774.00;;;;5113770;28;20590;-62
2022/09/21 06:58:45;;;;;;;1.03;0.73;;;;;5.40;96779.00;;;;5113456;28;20195;-62
2022/09/21 07:01:13;;;;;;;0.60;0.60;;;;;5.50;96782.00;;;;5113433;28;20227;-62
2022/09/21 07:03:42;;;;;;;1.00;1.00;;;;;5.40;96779.00;;;;5095533;28;20195;-62
2022/09/21 07:06:10;;;;;;;0.67;0.67;;;;;5.40;96779.00;;;;5113208;28;20222;-62
2022/09/21 07:08:38;;;;;;;0.77;0.77;;;;;5.50;96777.00;;;;5113239;28;20220;-61
2022/09/21 07:11:06;;;;;;;0.90;0.90;;;;;5.60;96782.00;;;;5113152;28;20241;-62
2022/09/21 07:13:34;;;;;;;0.77;0.77;;;;;5.80;96780.00;;;;5113351;28;20205;-62
2022/09/21 07:16:04;;;;;;;0.57;0.57;;;;;5.60;96781.00;;;;5113270;28;20240;-62
2022/09/21 07:18:30;;;;;;;1.00;1.00;;;;;5.70;96783.00;;;;5112998;28;20216;-62
2022/09/21 07:20:57;;;;;;;1.40;1.30;;;;;5.80;96788.00;;;;5113157;28;20194;-62
2022/09/21 07:23:24;;;;;;;1.43;1.37;;;;;5.50;96782.00;;;;5113156;28;20218;-61
2022/09/21 07:25:51;;;;;;;0.93;0.87;;;;;5.70;96784.00;;;;5113075;28;20385;-62
2022/09/21 07:28:20;;;;;;;0.60;0.60;;;;;5.80;96788.00;;;;5113043;28;20627;-62
2022/09/21 07:30:48;;;;;;;0.90;0.90;;;;;5.90;96785.00;;;;5112953;28;20222;-62
2022/09/21 07:33:15;;;;;;;0.90;0.83;;;;;6.00;96792.00;;;;5113064;28;20205;-62
2022/09/21 07:35:50;;;;;;;0.73;0.73;;;;;6.10;96785.00;;;;5112906;28;20536;-62
2022/09/21 07:38:17;;;;;;;0.70;0.70;;;;;6.20;96787.00;;;;5112909;28;20190;-62
2022/09/21 07:40:44;;;;;;;1.43;1.33;;;;;6.50;96793.00;;;;5115904;28;20229;-62
2022/09/21 07:43:11;;;;;;;0.73;0.73;;;;;6.60;96800.00;;;;5116363;28;20284;-62
2022/09/21 07:45:38;;;;;;;0.90;0.90;;;;;6.70;96789.00;;;;5116343;28;20193;-62
2022/09/21 07:48:07;;;;;;;0.70;0.70;;;;;6.80;96798.00;;;;5116316;28;20201;-62
2022/09/21 07:50:35;;;;;;;0.77;0.77;;;;;6.90;96790.00;;;;5116211;28;20229;-62
2022/09/21 07:53:02;;;;;;;0.70;0.70;;;;;7.10;96794.00;;;;5116184;28;20222;-62
2022/09/21 07:55:31;;;;;;;1.07;1.07;;;;;7.30;96792.00;;;;5116380;28;20194;-62
2022/09/21 08:00:46;;;;;;;5.63;1.30;;;;;7.60;96789.00;;;;5116202;28;20645;-62
2022/09/21 08:03:18;;;;;;;1.27;1.17;;;;;7.90;96787.00;;;;5115986;28;20548;-62
2022/09/21 08:05:48;;;;;;;1.20;1.17;;;;;7.80;96785.00;;;;5116404;28;20220;-62
2022/09/21 08:08:15;;;;;;;0.90;0.90;;;;;8.00;96785.00;;;;5116259;28;20197;-62
2022/09/21 08:10:42;;;;;;;1.40;1.30;;;;;8.20;96789.00;;;;5098310;28;20221;-62
2022/09/21 08:13:09;;;;;;;0.80;0.80;;;;;8.40;96784.00;;;;5116276;28;20197;-62
2022/09/21 08:15:36;;;;;;;0.70;0.70;;;;;8.50;96783.00;;;;5115935;28;20588;-62
2022/09/21 08:18:06;;;;;;;0.80;0.80;;;;;8.70;96781.00;;;;5116078;28;20212;-62
2022/09/21 08:20:34;;;;;;;1.30;1.30;;;;;8.70;96778.00;;;;5116007;28;20214;-62
2022/09/21 08:23:03;;;;;;;1.40;1.30;;;;;8.80;96781.00;;;;5115955;28;20239;-62
2022/09/21 08:25:31;;;;;;;5.40;1.57;;;;;9.10;96778.00;;;;5116167;28;20197;-62
2022/09/21 08:27:59;;;;;;;1.00;1.00;;;;;9.30;96780.00;;;;5115855;28;20720;-62
2022/09/21 08:30:27;;;;;;;1.13;1.10;;;;;9.20;96782.00;;;;5097887;28;20233;-61
2022/09/21 08:32:55;;;;;;;0.70;0.70;;;;;9.30;96782.00;;;;5115844;28;20213;-61
2022/09/21 08:35:24;;;;;;;0.63;0.63;;;;;9.50;96775.00;;;;5115876;28;20208;-60
2022/09/21 08:37:54;;;;;;;0.90;0.90;;;;;9.60;96791.00;;;;5115705;28;20205;-60
2022/09/21 08:40:21;;;;;;;1.00;1.00;;;;;9.80;96790.00;;;;5115814;28;20200;-60
2022/09/21 08:42:57;;;;;;;0.97;0.97;;;;;9.90;96787.00;;;;5115664;28;20198;-61
2022/09/21 08:45:31;;;;;;;0.80;0.80;;;;;10.10;96780.00;;;;5115687;28;20220;-60
2022/09/21 08:48:03;;;;;;;0.70;0.70;;;;;10.30;96786.00;;;;5115708;28;20209;-59
2022/09/21 08:50:39;;;;;;;1.03;1.03;;;;;10.50;96780.00;;;;5097192;28;20561;-62
2022/09/21 08:53:12;;;;;;;0.50;0.50;;;;;10.70;96781.00;;;;5115661;28;20186;-61
2022/09/21 08:55:38;;;;;;;0.60;0.60;;;;;10.80;96779.00;;;;5115525;28;20281;-59
2022/09/21 08:58:16;;;;;;;0.50;0.50;;;;;11.00;96786.00;;;;5115342;28;20218;-60
2022/09/21 09:00:43;;;;;;;1.03;0.93;;;;;11.00;96784.00;;;;5115698;28;20209;-62
2022/09/21 09:03:31;;;;;;;0.80;0.80;;;;;11.20;96783.00;;;;5115305;28;20249;-60
2022/09/21 09:06:03;;;;;;;0.70;0.70;;;;;11.20;96785.00;;;;5115537;28;20201;-59
2022/09/21 09:08:48;;;;;;;0.70;0.70;;;;;11.30;96778.00;;;;5115451;28;20202;-61
2022/09/21 09:11:27;;;;;;;0.60;0.60;;;;;11.40;96785.00;;;;5115399;28;20214;-61
2022/09/21 09:14:24;;;;;;;1.27;0.90;;;;;11.60;96783.00;;;;5097471;28;20625;-61
2022/09/21 09:17:09;;;;;;;0.80;0.80;;;;;11.80;96767.00;;;;5115296;28;20273;-61
2022/09/21 09:19:43;;;;;;;0.90;0.90;;;;;12.00;96785.00;;;;5115286;28;20633;-60
2022/09/21 09:22:16;;;;;;;0.60;0.60;;;;;12.20;96780.00;;;;5115222;28;20217;-61
2022/09/21 09:24:48;;;;;;;0.53;0.53;;;;;12.20;96778.00;;;;5115283;28;20297;-61
2022/09/21 09:27:20;;;;;;;1.20;1.10;;;;;12.30;96774.00;;;;5115054;28;20285;-60
2022/09/21 09:29:58;;;;;;;0.90;0.90;;;;;12.60;96772.00;;;;5114917;28;20222;-61
2022/09/21 09:32:35;;;;;;;0.77;0.77;;;;;12.80;96772.00;;;;5114963;28;20216;-61
2022/09/21 09:35:12;;;;;;;0.67;0.67;;;;;12.80;96770.00;;;;5114994;28;20197;-59
2022/09/21 09:37:41;;;;;;;0.97;0.97;;;;;12.80;96774.00;;;;5115098;28;20190;-60
2022/09/21 09:40:13;;;;;;;0.80;0.80;;;;;13.10;96763.00;;;;5114881;28;20221;-62
2022/09/21 09:42:52;;;;;;;0.93;0.93;;;;;13.40;96765.00;;;;5114789;28;20205;-62
2022/09/21 09:45:32;;;;;;;1.03;1.03;;;;;13.40;96763.00;;;;5114690;28;20194;-62
2022/09/21 09:48:19;;;;;;;0.90;0.90;;;;;13.40;96760.00;;;;5114744;28;20201;-62
2022/09/21 09:50:46;;;;;;;0.50;0.50;;;;;13.50;96764.00;;;;5114775;28;20217;-61
2022/09/21 09:53:17;;;;;;;1.80;1.17;;;;;13.60;96752.00;;;;5114812;28;20198;-61
2022/09/21 09:55:47;;;;;;;0.67;0.67;;;;;13.90;96755.00;;;;5114896;28;20191;-61
2022/09/21 09:58:19;;;;;;;0.80;0.70;;;;;14.00;96755.00;;;;5096520;28;20290;-62
2022/09/21 10:00:50;;;;;;;0.50;0.50;;;;;14.20;96752.00;;;;5114482;28;20413;-61
2022/09/21 10:03:19;;;;;;;0.60;0.60;;;;;14.20;96749.00;;;;5113476;28;20194;-61
2022/09/21 10:05:46;;;;;;;3.07;1.37;;;;;14.20;96743.00;;;;5114514;28;20201;-62
2022/09/21 10:08:40;;;;;;;0.70;0.70;;;;;14.30;96743.00;;;;5114417;28;20332;-61
2022/09/21 10:11:12;;;;;;;0.60;0.60;;;;;14.30;96746.00;;;;5114399;28;20279;-62
2022/09/21 10:13:41;;;;;;;0.80;0.80;;;;;14.40;96751.00;;;;5114329;28;20258;-62
2022/09/21 10:16:13;;;;;;;0.40;0.40;;;;;14.30;96739.00;;;;5114247;28;20267;-62
2022/09/21 10:18:48;;;;;;;1.27;0.93;;;;;14.50;96733.00;;;;5114205;28;20288;-61
2022/09/21 10:21:19;;;;;;;0.53;0.53;;;;;14.60;96734.00;;;;5114189;28;20194;-63
2022/09/21 10:23:49;;;;;;;0.77;0.77;;;;;15.00;96727.00;;;;5114091;28;20629;-61
2022/09/21 10:26:17;;;;;;;0.70;0.70;;;;;15.00;96729.00;;;;5114021;28;20305;-61
2022/09/21 10:28:56;;;;;;;0.50;0.50;;;;;15.10;96721.00;;;;5113801;28;20218;-61
2022/09/21 10:31:25;;;;;;;0.60;0.60;;;;;15.10;96727.00;;;;5114113;28;20214;-60
2022/09/21 10:34:03;;;;;;;0.67;0.67;;;;;15.50;96715.00;;;;5113794;28;20686;-59
2022/09/21 10:36:33;;;;;;;0.57;0.57;;;;;15.50;96715.00;;;;5095922;28;20210;-61
2022/09/21 10:39:18;;;;;;;1.33;0.80;;;;;15.20;96714.00;;;;5113835;28;20190;-60
2022/09/21 10:41:50;;;;;;;0.87;0.87;;;;;15.20;96716.00;;;;5113661;28;20225;-60
2022/09/21 10:44:19;;;;;;;0.83;0.83;;;;;15.50;96705.00;;;;5113770;28;20262;-61
2022/09/21 10:46:48;;;;;;;0.50;0.50;;;;;15.90;96698.00;;;;5113575;28;20213;-61
2022/09/21 10:49:20;;;;;;;0.60;0.60;;;;;16.10;96703.00;;;;5113768;28;20272;-61
2022/09/21 10:51:49;;;;;;;0.50;0.50;;;;;15.40;96706.00;;;;5113618;28;20186;-61
2022/09/21 10:54:21;;;;;;;0.40;0.40;;;;;15.70;96701.00;;;;5113531;28;20206;-61
2022/09/21 10:56:55;;;;;;;0.60;0.60;;;;;15.50;96728.00;;;;5113620;28;20274;-62
2022/09/21 10:59:25;;;;;;;0.93;0.93;;;;;15.50;96706.00;;;;5113623;28;20604;-62
2022/09/21 11:01:54;;;;;;;0.70;0.70;;;;;15.90;96704.00;;;;5095347;28;20630;-62
2022/09/21 11:04:40;;;;;;;0.77;0.77;;;;;16.10;96707.00;;;;5113429;28;20240;-62
2022/09/21 11:07:16;;;;;;;0.50;0.50;;;;;16.40;96708.00;;;;5113602;28;20184;-61
2022/09/21 11:09:51;;;;;;;0.40;0.40;;;;;15.90;96700.00;;;;5113549;28;20540;-62
2022/09/21 11:12:37;;;;;;;1.37;1.33;;;;;16.60;96705.00;;;;5113531;28;20299;-64
2022/09/21 11:15:21;;;;;;;0.53;0.53;;;;;16.40;96708.00;;;;5117250;28;20227;-60
2022/09/21 11:17:53;;;;;;;0.60;0.60;;;;;16.80;96706.00;;;;5117154;28;20225;-61
2022/09/21 11:20:29;;;;;;;0.60;0.60;;;;;17.20;96703.00;;;;5117150;28;20212;-61
2022/09/21 11:23:03;;;;;;;0.60;0.60;;;;;17.40;96706.00;;;;5117025;28;20676;-61
2022/09/21 11:25:40;;;;;;;0.60;0.60;;;;;16.70;96699.00;;;;5117144;28;20458;-61
2022/09/21 11:28:15;;;;;;;0.50;0.50;;;;;16.70;96701.00;;;;5116857;28;20217;-61
2022/09/21 11:31:09;;;;;;;0.60;0.60;;;;;16.90;96691.00;;;;5116836;28;20225;-61
2022/09/21 11:33:53;;;;;;;0.47;0.47;;;;;17.30;96696.00;;;;5116974;28;20182;-61
2022/09/21 11:36:32;;;;;;;0.60;0.60;;;;;17.50;96689.00;;;;5116723;28;20262;-61
2022/09/21 11:39:05;;;;;;;0.60;0.60;;;;;17.40;96687.00;;;;5116816;28;20208;-61
2022/09/21 11:41:54;;;;;;;0.73;0.73;;;;;17.50;96680.00;;;;5116563;28;20221;-58
2022/09/21 11:44:47;;;;;;;0.60;0.60;;;;;17.80;96684.00;;;;5116585;28;20633;-64
2022/09/21 11:47:25;;;;;;;0.50;0.50;;;;;17.40;96706.00;;;;5116497;28;20267;-61
2022/09/21 11:50:19;;;;;;;0.50;0.50;;;;;17.30;96700.00;;;;5116311;28;20582;-63
2022/09/21 11:52:55;;;;;;;0.50;0.50;;;;;16.80;96701.00;;;;5116523;28;20327;-61
2022/09/21 11:55:52;;;;;;;0.50;0.50;;;;;16.80;96676.00;;;;5098596;28;20198;-61
2022/09/21 11:58:27;;;;;;;0.40;0.40;;;;;17.20;96675.00;;;;5116526;28;20198;-61
2022/09/21 12:01:10;;;;;;;0.60;0.60;;;;;17.40;96665.00;;;;5116614;28;20706;-62
2022/09/21 12:03:50;;;;;;;1.70;0.93;;;;;17.70;96668.00;;;;5116735;28;20207;-62
2022/09/21 12:06:31;;;;;;;0.60;0.60;;;;;17.90;96675.00;;;;5116426;28;20220;-62
2022/09/21 12:09:25;;;;;;;0.57;0.57;;;;;18.20;96664.00;;;;5116417;28;20277;-62
2022/09/21 12:12:03;;;;;;;0.60;0.60;;;;;18.60;96680.00;;;;5098272;28;20289;-62
2022/09/21 12:14:36;;;;;;;0.50;0.50;;;;;18.90;96671.00;;;;5116367;28;20209;-62
2022/09/21 12:17:13;;;;;;;0.50;0.50;;;;;19.00;96671.00;;;;5116226;28;20586;-62
2022/09/21 12:19:45;;;;;;;0.50;0.50;;;;;19.10;96695.00;;;;5116173;28;20197;-61
2022/09/21 12:22:20;;;;;;;0.50;0.50;;;;;18.80;96674.00;;;;5116278;28;20206;-62
2022/09/21 12:24:49;;;;;;;0.50;0.50;;;;;18.40;96702.00;;;;5115208;28;20218;-61
2022/09/21 12:27:24;;;;;;;0.50;0.50;;;;;17.80;96667.00;;;;5115989;28;20190;-59
2022/09/21 12:29:56;;;;;;;0.50;0.50;;;;;18.30;96688.00;;;;5097993;28;20229;-62
2022/09/21 12:32:46;;;;;;;0.50;0.50;;;;;17.20;96686.00;;;;5115874;28;20522;-61
2022/09/21 12:35:17;;;;;;;0.83;0.80;;;;;16.90;96668.00;;;;5115945;28;20683;-64
2022/09/21 12:37:48;;;;;;;0.60;0.60;;;;;17.40;96667.00;;;;5115976;28;20225;-61
2022/09/21 12:40:20;;;;;;;0.60;0.60;;;;;17.90;96658.00;;;;5115879;28;20212;-61
2022/09/21 12:42:54;;;;;;;0.80;0.80;;;;;18.60;96665.00;;;;5115646;28;20237;-62
2022/09/21 12:45:26;;;;;;;0.60;0.60;;;;;19.00;96656.00;;;;5115761;28;20217;-61
2022/09/21 12:47:59;;;;;;;0.50;0.50;;;;;19.30;96660.00;;;;5115579;28;20286;-61
2022/09/21 12:50:31;;;;;;;0.70;0.70;;;;;18.90;96649.00;;;;5115510;28;20244;-60
2022/09/21 12:52:58;;;;;;;0.53;0.53;;;;;19.30;96658.00;;;;5115697;28;20167;-61